sensor_id;sensor_type;location;lat;lon;timestamp;temperature;humidity
48454;DHT22;34261;55.678;12.464;2023-06-24T00:02:10;17.70;99.90
48454;DHT22;34261;55.678;12.464;2023-06-24T00:04:37;17.70;99.90
48454;DHT22;34261;55.678;12.464;2023-06-24T00:07:02;17.60;99.90
48454;DHT22;34261;55.678;12.464;2023-06-24T00:09:28;17.60;99.90
48454;DHT22;34261;55.678;12.464;2023-06-24T00:11:55;17.60;99.90
48454;DHT22;34261;55.678;12.464;2023-06-24T00:14:24;17.50;99.90
48454;DHT22;34261;55.678;12.464;2023-06-24T00:16:50;17.50;99.90
48454;DHT22;34261;55.678;12.464;2023-06-24T00:19:18;17.40;99.90
48454;DHT22;34261;55.678;12.464;2023-06-24T00:21:46;17.50;99.90
48454;DHT22;34261;55.678;12.464;2023-06-24T00:24:11;17.40;99.90
48454;DHT22;34261;55.678;12.464;2023-06-24T00:26:36;17.30;99.90
48454;DHT22;34261;55.678;12.464;2023-06-24T00:29:05;17.30;99.90
48454;DHT22;34261;55.678;12.464;2023-06-24T00:31:30;17.20;99.90
48454;DHT22;34261;55.678;12.464;2023-06-24T00:33:56;17.20;99.90
48454;DHT22;34261;55.678;12.464;2023-06-24T00:36:24;17.10;99.90
48454;DHT22;34261;55.678;12.464;2023-06-24T00:38:52;17.10;99.90
48454;DHT22;34261;55.678;12.464;2023-06-24T00:41:17;17.10;99.90
48454;DHT22;34261;55.678;12.464;2023-06-24T00:43:45;17.10;99.90
48454;DHT22;34261;55.678;12.464;2023-06-24T00:46:11;17.10;99.90
48454;DHT22;34261;55.678;12.464;2023-06-24T00:48:39;17.10;99.90
48454;DHT22;34261;55.678;12.464;2023-06-24T00:51:04;17.00;99.90
48454;DHT22;34261;55.678;12.464;2023-06-24T00:53:34;16.90;99.90
48454;DHT22;34261;55.678;12.464;2023-06-24T00:56:00;16.90;99.90
48454;DHT22;34261;55.678;12.464;2023-06-24T00:58:28;16.90;99.90
48454;DHT22;34261;55.678;12.464;2023-06-24T01:00:57;16.90;99.90
48454;DHT22;34261;55.678;12.464;2023-06-24T01:03:26;16.90;99.90
48454;DHT22;34261;55.678;12.464;2023-06-24T01:05:54;16.80;99.90
48454;DHT22;34261;55.678;12.464;2023-06-24T01:08:20;16.80;99.90
48454;DHT22;34261;55.678;12.464;2023-06-24T01:10:48;16.80;99.90
48454;DHT22;34261;55.678;12.464;2023-06-24T01:13:13;16.70;99.90
48454;DHT22;34261;55.678;12.464;2023-06-24T01:15:39;16.60;99.90
48454;DHT22;34261;55.678;12.464;2023-06-24T01:18:51;16.60;99.90
48454;DHT22;34261;55.678;12.464;2023-06-24T01:28:42;16.40;99.90
48454;DHT22;34261;55.678;12.464;2023-06-24T01:31:34;16.30;99.90
48454;DHT22;34261;55.678;12.464;2023-06-24T01:34:18;16.30;99.90
48454;DHT22;34261;55.678;12.464;2023-06-24T01:36:54;16.20;99.90
48454;DHT22;34261;55.678;12.464;2023-06-24T01:39:20;16.10;99.90
48454;DHT22;34261;55.678;12.464;2023-06-24T01:41:52;16.10;99.90
48454;DHT22;34261;55.678;12.464;2023-06-24T01:44:19;16.10;99.90
48454;DHT22;34261;55.678;12.464;2023-06-24T01:46:46;16.10;99.90
48454;DHT22;34261;55.678;12.464;2023-06-24T01:49:13;16.10;99.90
48454;DHT22;34261;55.678;12.464;2023-06-24T01:51:40;16.10;99.90
48454;DHT22;34261;55.678;12.464;2023-06-24T01:54:07;16.10;99.90
48454;DHT22;34261;55.678;12.464;2023-06-24T01:56:35;16.10;99.90
48454;DHT22;34261;55.678;12.464;2023-06-24T01:59:02;16.00;99.90
48454;DHT22;34261;55.678;12.464;2023-06-24T02:01:29;16.10;99.90
48454;DHT22;34261;55.678;12.464;2023-06-24T02:04:00;16.00;99.90
48454;DHT22;34261;55.678;12.464;2023-06-24T02:06:26;16.00;99.90
48454;DHT22;34261;55.678;12.464;2023-06-24T02:08:53;16.00;99.90
48454;DHT22;34261;55.678;12.464;2023-06-24T02:11:22;16.00;99.90
48454;DHT22;34261;55.678;12.464;2023-06-24T02:13:48;16.00;99.90
48454;DHT22;34261;55.678;12.464;2023-06-24T02:16:19;16.00;99.90
48454;DHT22;34261;55.678;12.464;2023-06-24T02:18:45;16.00;99.90
48454;DHT22;34261;55.678;12.464;2023-06-24T02:21:13;16.00;99.90
48454;DHT22;34261;55.678;12.464;2023-06-24T02:23:39;16.00;99.90
48454;DHT22;34261;55.678;12.464;2023-06-24T02:26:05;16.10;99.90
48454;DHT22;34261;55.678;12.464;2023-06-24T02:28:32;16.10;99.90
48454;DHT22;34261;55.678;12.464;2023-06-24T02:30:58;16.20;99.90
48454;DHT22;34261;55.678;12.464;2023-06-24T02:33:25;16.20;99.90
48454;DHT22;34261;55.678;12.464;2023-06-24T02:35:52;16.20;99.90
48454;DHT22;34261;55.678;12.464;2023-06-24T02:38:18;16.30;99.90
48454;DHT22;34261;55.678;12.464;2023-06-24T02:40:44;16.30;99.90
48454;DHT22;34261;55.678;12.464;2023-06-24T02:43:12;16.30;99.90
48454;DHT22;34261;55.678;12.464;2023-06-24T02:45:38;16.30;99.90
48454;DHT22;34261;55.678;12.464;2023-06-24T02:48:03;16.30;99.90
48454;DHT22;34261;55.678;12.464;2023-06-24T02:50:29;16.30;99.90
48454;DHT22;34261;55.678;12.464;2023-06-24T02:52:56;16.30;99.90
48454;DHT22;34261;55.678;12.464;2023-06-24T02:55:24;16.20;99.90
48454;DHT22;34261;55.678;12.464;2023-06-24T02:57:50;16.20;99.90
48454;DHT22;34261;55.678;12.464;2023-06-24T03:00:16;16.20;99.90
48454;DHT22;34261;55.678;12.464;2023-06-24T03:02:43;16.20;99.90
48454;DHT22;34261;55.678;12.464;2023-06-24T03:05:13;16.20;99.90
48454;DHT22;34261;55.678;12.464;2023-06-24T03:07:40;16.20;99.90
48454;DHT22;34261;55.678;12.464;2023-06-24T03:10:07;16.20;99.90
48454;DHT22;34261;55.678;12.464;2023-06-24T03:12:33;16.20;99.90
48454;DHT22;34261;55.678;12.464;2023-06-24T03:14:58;16.20;99.90
48454;DHT22;34261;55.678;12.464;2023-06-24T03:17:26;16.20;99.90
48454;DHT22;34261;55.678;12.464;2023-06-24T03:19:54;16.20;99.90
48454;DHT22;34261;55.678;12.464;2023-06-24T03:22:21;16.20;99.90
48454;DHT22;34261;55.678;12.464;2023-06-24T03:24:46;16.20;99.90
48454;DHT22;34261;55.678;12.464;2023-06-24T03:27:12;16.20;99.90
48454;DHT22;34261;55.678;12.464;2023-06-24T03:29:38;16.20;99.90
48454;DHT22;34261;55.678;12.464;2023-06-24T03:32:03;16.20;99.90
48454;DHT22;34261;55.678;12.464;2023-06-24T03:34:29;16.20;99.90
48454;DHT22;34261;55.678;12.464;2023-06-24T03:36:54;16.20;99.90
48454;DHT22;34261;55.678;12.464;2023-06-24T03:39:20;16.10;99.90
48454;DHT22;34261;55.678;12.464;2023-06-24T03:41:46;16.10;99.90
48454;DHT22;34261;55.678;12.464;2023-06-24T03:44:11;16.10;99.90
48454;DHT22;34261;55.678;12.464;2023-06-24T03:46:37;16.00;99.90
48454;DHT22;34261;55.678;12.464;2023-06-24T03:49:03;16.00;99.90
48454;DHT22;34261;55.678;12.464;2023-06-24T03:51:28;16.00;99.90
48454;DHT22;34261;55.678;12.464;2023-06-24T03:53:54;16.10;99.90
48454;DHT22;34261;55.678;12.464;2023-06-24T03:56:19;16.00;99.90
48454;DHT22;34261;55.678;12.464;2023-06-24T03:58:50;16.00;99.90
48454;DHT22;34261;55.678;12.464;2023-06-24T04:01:15;16.00;99.90
48454;DHT22;34261;55.678;12.464;2023-06-24T04:03:44;16.00;99.90
48454;DHT22;34261;55.678;12.464;2023-06-24T04:06:10;16.00;99.90
48454;DHT22;34261;55.678;12.464;2023-06-24T04:08:35;16.00;99.90
48454;DHT22;34261;55.678;12.464;2023-06-24T04:11:04;16.00;99.90
48454;DHT22;34261;55.678;12.464;2023-06-24T04:13:32;16.00;99.90
48454;DHT22;34261;55.678;12.464;2023-06-24T04:15:57;16.00;99.90
48454;DHT22;34261;55.678;12.464;2023-06-24T04:18:23;16.00;99.90
48454;DHT22;34261;55.678;12.464;2023-06-24T04:20:48;16.10;99.90
48454;DHT22;34261;55.678;12.464;2023-06-24T04:23:14;16.10;99.90
48454;DHT22;34261;55.678;12.464;2023-06-24T04:25:40;16.20;99.90
48454;DHT22;34261;55.678;12.464;2023-06-24T04:28:06;16.30;99.90
48454;DHT22;34261;55.678;12.464;2023-06-24T04:30:32;16.40;99.90
48454;DHT22;34261;55.678;12.464;2023-06-24T04:32:57;16.50;99.90
48454;DHT22;34261;55.678;12.464;2023-06-24T04:35:24;16.50;99.90
48454;DHT22;34261;55.678;12.464;2023-06-24T04:37:51;16.60;99.90
48454;DHT22;34261;55.678;12.464;2023-06-24T04:40:17;16.60;99.90
48454;DHT22;34261;55.678;12.464;2023-06-24T04:42:42;16.60;99.90
48454;DHT22;34261;55.678;12.464;2023-06-24T04:45:08;16.70;99.90
48454;DHT22;34261;55.678;12.464;2023-06-24T04:47:33;16.80;99.90
48454;DHT22;34261;55.678;12.464;2023-06-24T04:50:00;16.90;99.90
48454;DHT22;34261;55.678;12.464;2023-06-24T04:52:26;17.00;99.90
48454;DHT22;34261;55.678;12.464;2023-06-24T04:54:51;17.10;99.90
48454;DHT22;34261;55.678;12.464;2023-06-24T04:57:27;17.10;99.90
48454;DHT22;34261;55.678;12.464;2023-06-24T04:59:52;17.30;99.90
48454;DHT22;34261;55.678;12.464;2023-06-24T05:02:21;17.50;99.90
48454;DHT22;34261;55.678;12.464;2023-06-24T05:04:46;17.50;99.90
48454;DHT22;34261;55.678;12.464;2023-06-24T05:07:13;17.40;99.90
48454;DHT22;34261;55.678;12.464;2023-06-24T05:09:38;17.40;99.90
48454;DHT22;34261;55.678;12.464;2023-06-24T05:12:04;17.40;99.90
48454;DHT22;34261;55.678;12.464;2023-06-24T05:14:36;17.40;99.90
48454;DHT22;34261;55.678;12.464;2023-06-24T05:17:11;17.40;99.90
48454;DHT22;34261;55.678;12.464;2023-06-24T05:19:36;17.50;99.90
48454;DHT22;34261;55.678;12.464;2023-06-24T05:22:02;17.60;99.90
48454;DHT22;34261;55.678;12.464;2023-06-24T05:24:27;17.70;99.90
48454;DHT22;34261;55.678;12.464;2023-06-24T05:26:56;17.70;99.90
48454;DHT22;34261;55.678;12.464;2023-06-24T05:29:24;17.90;99.90
48454;DHT22;34261;55.678;12.464;2023-06-24T05:31:50;17.90;99.90
48454;DHT22;34261;55.678;12.464;2023-06-24T05:34:15;18.00;99.90
48454;DHT22;34261;55.678;12.464;2023-06-24T05:36:41;18.10;99.90
48454;DHT22;34261;55.678;12.464;2023-06-24T05:39:06;18.20;99.90
48454;DHT22;34261;55.678;12.464;2023-06-24T05:41:33;18.30;99.90
48454;DHT22;34261;55.678;12.464;2023-06-24T05:44:02;18.30;99.90
48454;DHT22;34261;55.678;12.464;2023-06-24T05:46:31;18.40;99.90
48454;DHT22;34261;55.678;12.464;2023-06-24T05:48:58;18.50;99.90
48454;DHT22;34261;55.678;12.464;2023-06-24T05:51:23;18.50;99.90
48454;DHT22;34261;55.678;12.464;2023-06-24T05:53:50;18.60;99.90
48454;DHT22;34261;55.678;12.464;2023-06-24T05:56:17;18.60;99.90
48454;DHT22;34261;55.678;12.464;2023-06-24T05:58:43;18.60;99.90
48454;DHT22;34261;55.678;12.464;2023-06-24T06:01:11;18.70;99.90
48454;DHT22;34261;55.678;12.464;2023-06-24T06:03:37;18.80;99.90
48454;DHT22;34261;55.678;12.464;2023-06-24T06:06:03;18.90;99.90
48454;DHT22;34261;55.678;12.464;2023-06-24T06:08:30;19.00;99.90
48454;DHT22;34261;55.678;12.464;2023-06-24T06:10:56;19.10;99.90
48454;DHT22;34261;55.678;12.464;2023-06-24T06:13:21;19.20;99.90
48454;DHT22;34261;55.678;12.464;2023-06-24T06:15:47;19.10;99.90
48454;DHT22;34261;55.678;12.464;2023-06-24T06:18:16;19.30;99.90
48454;DHT22;34261;55.678;12.464;2023-06-24T06:20:42;19.40;99.90
48454;DHT22;34261;55.678;12.464;2023-06-24T06:23:07;19.40;99.90
48454;DHT22;34261;55.678;12.464;2023-06-24T06:25:33;19.40;99.90
48454;DHT22;34261;55.678;12.464;2023-06-24T06:27:58;19.50;99.90
48454;DHT22;34261;55.678;12.464;2023-06-24T06:30:25;19.60;99.90
48454;DHT22;34261;55.678;12.464;2023-06-24T06:32:50;19.80;99.90
48454;DHT22;34261;55.678;12.464;2023-06-24T06:35:16;20.00;99.90
48454;DHT22;34261;55.678;12.464;2023-06-24T06:37:41;20.10;99.90
48454;DHT22;34261;55.678;12.464;2023-06-24T06:40:07;20.20;99.90
48454;DHT22;34261;55.678;12.464;2023-06-24T06:42:34;20.40;99.90
48454;DHT22;34261;55.678;12.464;2023-06-24T06:45:00;20.50;99.90
48454;DHT22;34261;55.678;12.464;2023-06-24T06:47:26;20.50;99.90
48454;DHT22;34261;55.678;12.464;2023-06-24T06:49:52;20.60;99.90
48454;DHT22;34261;55.678;12.464;2023-06-24T06:52:17;20.70;99.90
48454;DHT22;34261;55.678;12.464;2023-06-24T06:54:43;20.90;99.90
48454;DHT22;34261;55.678;12.464;2023-06-24T06:57:09;20.80;99.90
48454;DHT22;34261;55.678;12.464;2023-06-24T06:59:37;20.80;99.90
48454;DHT22;34261;55.678;12.464;2023-06-24T07:02:03;20.80;99.90
48454;DHT22;34261;55.678;12.464;2023-06-24T07:04:29;20.80;99.90
48454;DHT22;34261;55.678;12.464;2023-06-24T07:06:56;20.80;99.90
48454;DHT22;34261;55.678;12.464;2023-06-24T07:09:27;20.90;99.90
48454;DHT22;34261;55.678;12.464;2023-06-24T07:11:52;21.10;99.90
48454;DHT22;34261;55.678;12.464;2023-06-24T07:14:17;21.30;99.90
48454;DHT22;34261;55.678;12.464;2023-06-24T07:16:52;21.30;99.80
48454;DHT22;34261;55.678;12.464;2023-06-24T07:19:18;21.30;99.60
48454;DHT22;34261;55.678;12.464;2023-06-24T07:21:43;21.20;98.90
48454;DHT22;34261;55.678;12.464;2023-06-24T07:24:09;21.30;99.10
48454;DHT22;34261;55.678;12.464;2023-06-24T07:26:34;21.40;98.70
48454;DHT22;34261;55.678;12.464;2023-06-24T07:29:00;21.50;98.40
48454;DHT22;34261;55.678;12.464;2023-06-24T07:31:25;21.60;98.50
48454;DHT22;34261;55.678;12.464;2023-06-24T07:33:51;21.70;97.80
48454;DHT22;34261;55.678;12.464;2023-06-24T07:36:16;21.70;98.00
48454;DHT22;34261;55.678;12.464;2023-06-24T07:38:42;21.80;97.90
48454;DHT22;34261;55.678;12.464;2023-06-24T07:41:10;21.90;98.00
48454;DHT22;34261;55.678;12.464;2023-06-24T07:43:36;22.10;97.90
48454;DHT22;34261;55.678;12.464;2023-06-24T07:46:01;22.20;97.40
48454;DHT22;34261;55.678;12.464;2023-06-24T07:48:27;22.30;97.20
48454;DHT22;34261;55.678;12.464;2023-06-24T07:50:52;22.30;97.20
48454;DHT22;34261;55.678;12.464;2023-06-24T07:53:18;22.40;97.10
48454;DHT22;34261;55.678;12.464;2023-06-24T07:55:43;22.60;96.70
48454;DHT22;34261;55.678;12.464;2023-06-24T07:58:09;22.60;95.60
48454;DHT22;34261;55.678;12.464;2023-06-24T08:00:34;22.50;95.80
48454;DHT22;34261;55.678;12.464;2023-06-24T08:03:00;22.50;95.40
48454;DHT22;34261;55.678;12.464;2023-06-24T08:05:25;22.60;95.40
48454;DHT22;34261;55.678;12.464;2023-06-24T08:07:51;22.60;95.10
48454;DHT22;34261;55.678;12.464;2023-06-24T08:10:17;22.70;95.10
48454;DHT22;34261;55.678;12.464;2023-06-24T08:12:42;22.80;95.40
48454;DHT22;34261;55.678;12.464;2023-06-24T08:15:08;22.90;95.70
48454;DHT22;34261;55.678;12.464;2023-06-24T08:17:33;23.00;95.90
48454;DHT22;34261;55.678;12.464;2023-06-24T08:19:59;23.10;94.80
48454;DHT22;34261;55.678;12.464;2023-06-24T08:22:24;23.40;94.20
48454;DHT22;34261;55.678;12.464;2023-06-24T08:24:50;23.50;94.10
48454;DHT22;34261;55.678;12.464;2023-06-24T08:27:15;23.70;94.60
48454;DHT22;34261;55.678;12.464;2023-06-24T08:29:41;23.90;94.30
48454;DHT22;34261;55.678;12.464;2023-06-24T08:32:06;23.90;93.20
48454;DHT22;34261;55.678;12.464;2023-06-24T08:34:32;23.90;91.80
48454;DHT22;34261;55.678;12.464;2023-06-24T08:36:57;23.80;91.60
48454;DHT22;34261;55.678;12.464;2023-06-24T08:39:23;24.00;91.50
48454;DHT22;34261;55.678;12.464;2023-06-24T08:41:49;24.20;91.60
48454;DHT22;34261;55.678;12.464;2023-06-24T08:44:14;24.40;91.40
48454;DHT22;34261;55.678;12.464;2023-06-24T08:46:40;24.60;91.00
48454;DHT22;34261;55.678;12.464;2023-06-24T08:51:39;24.90;90.10
48454;DHT22;34261;55.678;12.464;2023-06-24T08:54:05;24.80;87.70
48454;DHT22;34261;55.678;12.464;2023-06-24T08:56:33;24.90;88.20
48454;DHT22;34261;55.678;12.464;2023-06-24T08:58:59;24.70;89.10
48454;DHT22;34261;55.678;12.464;2023-06-24T09:01:25;24.70;88.30
48454;DHT22;34261;55.678;12.464;2023-06-24T09:03:51;24.90;87.60
48454;DHT22;34261;55.678;12.464;2023-06-24T09:06:16;24.90;87.30
48454;DHT22;34261;55.678;12.464;2023-06-24T09:08:51;24.90;88.00
48454;DHT22;34261;55.678;12.464;2023-06-24T09:11:21;24.80;87.00
48454;DHT22;34261;55.678;12.464;2023-06-24T09:13:47;24.70;89.00
48454;DHT22;34261;55.678;12.464;2023-06-24T09:16:13;24.80;88.80
48454;DHT22;34261;55.678;12.464;2023-06-24T09:18:41;24.80;87.30
48454;DHT22;34261;55.678;12.464;2023-06-24T09:21:07;24.80;86.60
48454;DHT22;34261;55.678;12.464;2023-06-24T09:23:37;24.50;85.00
48454;DHT22;34261;55.678;12.464;2023-06-24T09:26:02;24.60;86.60
48454;DHT22;34261;55.678;12.464;2023-06-24T09:28:28;24.60;86.50
48454;DHT22;34261;55.678;12.464;2023-06-24T09:31:09;24.60;86.40
48454;DHT22;34261;55.678;12.464;2023-06-24T09:33:35;24.70;86.20
48454;DHT22;34261;55.678;12.464;2023-06-24T09:36:03;24.80;83.40
48454;DHT22;34261;55.678;12.464;2023-06-24T09:38:34;24.90;84.70
48454;DHT22;34261;55.678;12.464;2023-06-24T09:41:03;24.90;85.70
48454;DHT22;34261;55.678;12.464;2023-06-24T09:43:30;25.10;83.70
48454;DHT22;34261;55.678;12.464;2023-06-24T09:45:56;25.20;84.00
48454;DHT22;34261;55.678;12.464;2023-06-24T09:48:22;25.40;83.90
48454;DHT22;34261;55.678;12.464;2023-06-24T09:50:48;25.40;83.70
48454;DHT22;34261;55.678;12.464;2023-06-24T09:53:13;25.30;83.70
48454;DHT22;34261;55.678;12.464;2023-06-24T09:55:39;25.40;84.20
48454;DHT22;34261;55.678;12.464;2023-06-24T09:58:08;25.70;83.70
48454;DHT22;34261;55.678;12.464;2023-06-24T10:00:35;25.80;83.50
48454;DHT22;34261;55.678;12.464;2023-06-24T10:03:01;25.70;83.00
48454;DHT22;34261;55.678;12.464;2023-06-24T10:05:27;25.90;82.50
48454;DHT22;34261;55.678;12.464;2023-06-24T10:07:53;26.00;82.90
48454;DHT22;34261;55.678;12.464;2023-06-24T10:10:18;26.10;81.90
48454;DHT22;34261;55.678;12.464;2023-06-24T10:12:44;26.40;81.50
48454;DHT22;34261;55.678;12.464;2023-06-24T10:15:09;26.40;80.60
48454;DHT22;34261;55.678;12.464;2023-06-24T10:17:35;26.50;82.50
48454;DHT22;34261;55.678;12.464;2023-06-24T10:20:04;26.80;82.80
48454;DHT22;34261;55.678;12.464;2023-06-24T10:22:31;27.00;81.10
48454;DHT22;34261;55.678;12.464;2023-06-24T10:25:00;26.70;79.80
48454;DHT22;34261;55.678;12.464;2023-06-24T10:27:26;26.90;81.00
48454;DHT22;34261;55.678;12.464;2023-06-24T10:29:55;27.20;80.80
48454;DHT22;34261;55.678;12.464;2023-06-24T10:32:23;27.30;81.60
48454;DHT22;34261;55.678;12.464;2023-06-24T10:34:55;27.20;81.30
48454;DHT22;34261;55.678;12.464;2023-06-24T10:37:25;26.90;81.80
48454;DHT22;34261;55.678;12.464;2023-06-24T10:39:52;27.20;82.10
48454;DHT22;34261;55.678;12.464;2023-06-24T10:44:56;27.80;79.80
48454;DHT22;34261;55.678;12.464;2023-06-24T10:47:22;27.70;79.30
48454;DHT22;34261;55.678;12.464;2023-06-24T10:49:48;27.40;77.80
48454;DHT22;34261;55.678;12.464;2023-06-24T10:52:13;27.30;78.30
48454;DHT22;34261;55.678;12.464;2023-06-24T10:54:40;27.20;78.50
48454;DHT22;34261;55.678;12.464;2023-06-24T10:57:06;26.90;79.80
48454;DHT22;34261;55.678;12.464;2023-06-24T10:59:35;26.30;78.30
48454;DHT22;34261;55.678;12.464;2023-06-24T11:02:00;25.80;78.30
48454;DHT22;34261;55.678;12.464;2023-06-24T11:04:26;25.60;81.40
48454;DHT22;34261;55.678;12.464;2023-06-24T11:06:58;25.50;81.40
48454;DHT22;34261;55.678;12.464;2023-06-24T11:09:23;25.90;82.40
48454;DHT22;34261;55.678;12.464;2023-06-24T11:11:49;26.40;81.90
48454;DHT22;34261;55.678;12.464;2023-06-24T11:14:15;26.60;79.20
48454;DHT22;34261;55.678;12.464;2023-06-24T11:16:41;26.20;78.10
48454;DHT22;34261;55.678;12.464;2023-06-24T11:19:06;25.90;80.20
48454;DHT22;34261;55.678;12.464;2023-06-24T11:21:32;25.90;80.20
48454;DHT22;34261;55.678;12.464;2023-06-24T11:24:01;25.90;80.70
48454;DHT22;34261;55.678;12.464;2023-06-24T11:26:27;26.10;79.90
48454;DHT22;34261;55.678;12.464;2023-06-24T11:28:52;26.30;82.40
48454;DHT22;34261;55.678;12.464;2023-06-24T11:31:18;26.70;80.60
48454;DHT22;34261;55.678;12.464;2023-06-24T11:33:48;27.00;80.40
48454;DHT22;34261;55.678;12.464;2023-06-24T11:36:16;27.50;79.60
48454;DHT22;34261;55.678;12.464;2023-06-24T11:38:41;28.00;79.40
48454;DHT22;34261;55.678;12.464;2023-06-24T11:41:07;27.90;77.90
48454;DHT22;34261;55.678;12.464;2023-06-24T11:43:33;28.00;76.90
48454;DHT22;34261;55.678;12.464;2023-06-24T11:45:58;28.40;76.90
48454;DHT22;34261;55.678;12.464;2023-06-24T11:48:30;28.80;76.80
48454;DHT22;34261;55.678;12.464;2023-06-24T11:50:55;29.40;76.80
48454;DHT22;34261;55.678;12.464;2023-06-24T11:53:30;29.60;75.00
48454;DHT22;34261;55.678;12.464;2023-06-24T11:55:59;29.30;74.40
48454;DHT22;34261;55.678;12.464;2023-06-24T11:58:24;29.30;73.70
48454;DHT22;34261;55.678;12.464;2023-06-24T12:00:50;28.90;72.60
48454;DHT22;34261;55.678;12.464;2023-06-24T12:03:17;28.00;72.60
48454;DHT22;34261;55.678;12.464;2023-06-24T12:05:43;27.40;73.70
48454;DHT22;34261;55.678;12.464;2023-06-24T12:08:12;27.40;72.70
48454;DHT22;34261;55.678;12.464;2023-06-24T12:10:40;27.50;73.60
48454;DHT22;34261;55.678;12.464;2023-06-24T12:13:06;27.70;73.10
48454;DHT22;34261;55.678;12.464;2023-06-24T12:15:33;28.20;74.50
48454;DHT22;34261;55.678;12.464;2023-06-24T12:17:59;28.60;74.30
48454;DHT22;34261;55.678;12.464;2023-06-24T12:20:25;28.60;73.40
48454;DHT22;34261;55.678;12.464;2023-06-24T12:22:51;29.10;75.30
48454;DHT22;34261;55.678;12.464;2023-06-24T12:25:16;29.70;72.90
48454;DHT22;34261;55.678;12.464;2023-06-24T12:27:42;29.90;73.20
48454;DHT22;34261;55.678;12.464;2023-06-24T12:30:08;29.90;74.00
48454;DHT22;34261;55.678;12.464;2023-06-24T12:32:34;29.30;74.00
48454;DHT22;34261;55.678;12.464;2023-06-24T12:34:59;29.10;74.20
48454;DHT22;34261;55.678;12.464;2023-06-24T12:37:25;29.20;76.40
48454;DHT22;34261;55.678;12.464;2023-06-24T12:39:50;29.30;74.30
48454;DHT22;34261;55.678;12.464;2023-06-24T12:42:18;29.50;75.60
48454;DHT22;34261;55.678;12.464;2023-06-24T12:44:44;29.60;74.60
48454;DHT22;34261;55.678;12.464;2023-06-24T12:47:09;29.50;74.60
48454;DHT22;34261;55.678;12.464;2023-06-24T12:49:35;29.60;73.60
48454;DHT22;34261;55.678;12.464;2023-06-24T12:52:01;30.20;76.50
48454;DHT22;34261;55.678;12.464;2023-06-24T12:54:26;30.30;72.90
48454;DHT22;34261;55.678;12.464;2023-06-24T12:56:52;29.90;73.00
48454;DHT22;34261;55.678;12.464;2023-06-24T12:59:17;29.40;74.60
48454;DHT22;34261;55.678;12.464;2023-06-24T13:01:43;29.80;75.60
48454;DHT22;34261;55.678;12.464;2023-06-24T13:04:10;30.10;76.50
48454;DHT22;34261;55.678;12.464;2023-06-24T13:06:35;29.50;74.40
48454;DHT22;34261;55.678;12.464;2023-06-24T13:09:01;28.80;75.00
48454;DHT22;34261;55.678;12.464;2023-06-24T13:11:27;28.10;75.70
48454;DHT22;34261;55.678;12.464;2023-06-24T13:13:52;28.00;76.80
48454;DHT22;34261;55.678;12.464;2023-06-24T13:16:18;28.30;76.70
48454;DHT22;34261;55.678;12.464;2023-06-24T13:18:43;28.50;76.30
48454;DHT22;34261;55.678;12.464;2023-06-24T13:21:08;29.00;76.80
48454;DHT22;34261;55.678;12.464;2023-06-24T13:23:34;29.40;76.70
48454;DHT22;34261;55.678;12.464;2023-06-24T13:26:02;29.90;77.00
48454;DHT22;34261;55.678;12.464;2023-06-24T13:28:28;30.10;77.60
48454;DHT22;34261;55.678;12.464;2023-06-24T13:30:53;30.70;78.20
48454;DHT22;34261;55.678;12.464;2023-06-24T13:33:19;30.60;75.20
48454;DHT22;34261;55.678;12.464;2023-06-24T13:35:45;30.30;75.40
48454;DHT22;34261;55.678;12.464;2023-06-24T13:38:10;30.60;74.70
48454;DHT22;34261;55.678;12.464;2023-06-24T13:40:37;30.80;72.70
48454;DHT22;34261;55.678;12.464;2023-06-24T13:43:03;30.70;70.10
48454;DHT22;34261;55.678;12.464;2023-06-24T13:45:28;31.00;71.80
48454;DHT22;34261;55.678;12.464;2023-06-24T13:47:54;31.00;72.50
48454;DHT22;34261;55.678;12.464;2023-06-24T13:50:20;31.30;70.70
48454;DHT22;34261;55.678;12.464;2023-06-24T13:52:45;31.20;69.40
48454;DHT22;34261;55.678;12.464;2023-06-24T13:55:11;30.80;70.10
48454;DHT22;34261;55.678;12.464;2023-06-24T13:57:36;30.70;69.70
48454;DHT22;34261;55.678;12.464;2023-06-24T14:00:02;30.80;70.00
48454;DHT22;34261;55.678;12.464;2023-06-24T14:02:27;30.90;69.30
48454;DHT22;34261;55.678;12.464;2023-06-24T14:04:53;30.70;70.20
48454;DHT22;34261;55.678;12.464;2023-06-24T14:07:18;30.70;70.10
48454;DHT22;34261;55.678;12.464;2023-06-24T14:09:44;31.00;70.60
48454;DHT22;34261;55.678;12.464;2023-06-24T14:12:09;31.50;70.90
48454;DHT22;34261;55.678;12.464;2023-06-24T14:14:35;31.70;69.50
48454;DHT22;34261;55.678;12.464;2023-06-24T14:17:02;31.70;69.40
48454;DHT22;34261;55.678;12.464;2023-06-24T14:19:27;31.50;69.90
48454;DHT22;34261;55.678;12.464;2023-06-24T14:21:53;31.60;71.00
48454;DHT22;34261;55.678;12.464;2023-06-24T14:24:19;31.90;68.50
48454;DHT22;34261;55.678;12.464;2023-06-24T14:26:44;32.00;68.00
48454;DHT22;34261;55.678;12.464;2023-06-24T14:29:14;32.00;68.30
48454;DHT22;34261;55.678;12.464;2023-06-24T14:31:39;31.80;67.70
48454;DHT22;34261;55.678;12.464;2023-06-24T14:34:05;31.40;68.60
48454;DHT22;34261;55.678;12.464;2023-06-24T14:36:30;31.50;68.80
48454;DHT22;34261;55.678;12.464;2023-06-24T14:38:56;31.70;68.00
48454;DHT22;34261;55.678;12.464;2023-06-24T14:41:21;31.70;68.90
48454;DHT22;34261;55.678;12.464;2023-06-24T14:43:46;31.80;69.70
48454;DHT22;34261;55.678;12.464;2023-06-24T14:46:12;31.40;66.60
48454;DHT22;34261;55.678;12.464;2023-06-24T14:48:37;31.20;67.60
48454;DHT22;34261;55.678;12.464;2023-06-24T14:51:03;31.30;69.40
48454;DHT22;34261;55.678;12.464;2023-06-24T14:53:28;30.90;70.00
48454;DHT22;34261;55.678;12.464;2023-06-24T14:55:54;30.80;70.60
48454;DHT22;34261;55.678;12.464;2023-06-24T14:58:19;30.90;70.70
48454;DHT22;34261;55.678;12.464;2023-06-24T15:00:45;30.70;69.60
48454;DHT22;34261;55.678;12.464;2023-06-24T15:03:11;31.00;70.70
48454;DHT22;34261;55.678;12.464;2023-06-24T15:05:38;31.40;69.50
48454;DHT22;34261;55.678;12.464;2023-06-24T15:08:04;30.90;69.80
48454;DHT22;34261;55.678;12.464;2023-06-24T15:10:30;31.00;70.90
48454;DHT22;34261;55.678;12.464;2023-06-24T15:12:55;31.40;70.20
48454;DHT22;34261;55.678;12.464;2023-06-24T15:15:21;31.70;70.30
48454;DHT22;34261;55.678;12.464;2023-06-24T15:17:46;31.60;70.40
48454;DHT22;34261;55.678;12.464;2023-06-24T15:20:12;31.20;70.70
48454;DHT22;34261;55.678;12.464;2023-06-24T15:22:37;31.30;71.10
48454;DHT22;34261;55.678;12.464;2023-06-24T15:25:03;31.60;70.60